MČR LOB klasika
Location Stážné Start Time 15.1.2011 13:33:00
Category Závod
Distance 21,09 km Ascend 550,0 m Descend -536,9 m
Total Time 01:40:58 Moving 01:34:18 Stopped 00:06:40
Average Speed 12,7 km/h Fastest Speed 33,7 km/h Slowest Speed 0,9 km/h
Calories 1901 Average HR N/A Max HR N/A
Weather 4 °C ChanceRain
Equipment
Notes 17km,750m, 26k Fekal pocasi, dest, tezkej mokrej snih. Pořadatelé se evidentně snažili, co to šlo, dělali mostíky a nahazovali sníh, ale když soustavně příslovečně chčije a chčije několik dní, včetně dopoledne i odpoledne během závodu, nedalo se s tím nic lepšího udělat. Takže to dopadlo tak, že hlavně ve spodních pasážích člověk musel občas projet metr bahna, přeskočit potok nebo přeběhnout pár metrů podmáčený trávy s krtincema. K tomu totálně mokrej a těžkej sníh, kterej vůbec nejel, drsný kopce a byla z toho klasika, jak se sluší a patří. Podmínkama jsem se nenechal rozhodit a byl jsem rozhodnutej za nepřítomnosti Suda ukončit Lauičovu dlouholetou nadvládu na mistrovství na klasice. Trhlinu můj cíl dostal asi tak 2' po startu, když jsem vůbec nepobral, jak to tam myslí s těma odbočkama do leva a třetí se nedopočítal. Dojel jsem až někam do oněch míst, musel se hodný kus vracet a pak tam v tom totálně stopama rozježděným lese hledal jedničku, protože najetý skůtrovky nebyly vůbec poznat. Suma sumárum 3' chyba na K1 a ještě k tomu jsem jí akorát našel Škůdkovi, kterej šel za mnou a taky už tam točil volantem. Byl jsem z toho vývoje trochu znechucen a měl hlodavé myšlenky to zabalit, ale řekl jsem si, že to třeba ještě dojedu. Nebavilo mi to, nejelo to, netáhlo to, ale za chvíli jsem urval Škůdku, prosvištěl kolem statika Kládina a famózně jedoucího Tomči a nějak těch 100' v těch sračkách už bez větší chyby dojel. A v cíli jsem zjistil, že jsem ty 3 míny nesjel úplně a že mi muší váha Jenda zařízl o 30 sekund. No není to skvělé?! A to nás oba až do K18 (z 26) řezal Dram, kterej dojel nakonec 3. H21 (51) 0.0 km 26 K 1 Lauerman Jan SJI7419E 98:22 0:00 2 Bouchal Jiří VPM8449E 98:57 0:35 3 Drobník Michal SJC8709E 99:30 1:08 4 Venhoda Milan SJI7104E 103:38 5:16 5 Škoda Jakub VLI8800E 103:42 5:20 6 Rygl Miroslav TBM7205E 105:44 7:22 7 Horyna Roman DKP7600E 106:26 8:04 8 Šedivý Jan EKP8400E 107:39 9:17 9 Kolín Jan JIL7701E 107:52 9:30 10 Rygl Jaroslav TBM7044E 113:30 15:08 11 Podrábský Ctibor VLI7001A 115:38 17:16 12 Laciga Radek SZP8200E 116:03 17:41 13 Košárek Pavel JAM7100E 117:33 19:11 14 Pospíšil Vítek SZP6800E 117:37 19:15 15 Seidl Miroslav EKP7402E 121:06 22:44 16 Šťastný Jiří TBM7137E 122:06 23:44 17 Váňa Lukáš VRB8601E 122:34 24:12 18 Kopáček Miroslav CHT6049E 122:38 24:16 19 Kunc Radovan TJN5549E 122:40 24:18 20 Rauch Tomáš VPM8501E 122:54 24:32 21 Procházka Jan DKP8201E 123:52 25:30 22 Hora Vojtěch SZP8300E 124:54 26:32 23 Ondráček Radim EKP7414E 125:02 26:40 24 Mrázek Jan SZP8102E 126:11 27:49 25 Boudný Jan SJI7417A 129:34 31:12 Rauch Stanislav VPM8201E disk Klech Richard VRB7201E disk
Splits
Distance (km) Total Time Split Time Split Pace Split Speed Elevation Change (m)
0,50 00:05:19 00:05:19 00:10:39 5,6 28,18
1,00 00:08:20 00:03:01 00:06:02 9,9 -2,61
1,50 00:09:31 00:01:10 00:02:21 25,6 -30,52
2,00 00:10:27 00:00:56 00:01:52 32,1 -34,57
2,50 00:11:39 00:01:12 00:02:25 24,8 -9,86
3,00 00:13:25 00:01:45 00:03:31 17,1 -5,98
3,50 00:14:29 00:01:04 00:02:09 27,9 -42,01
4,00 00:16:04 00:01:34 00:03:10 19,0 -54,48
4,50 00:18:23 00:02:19 00:04:38 12,9 -10,25
5,00 00:20:36 00:02:12 00:04:25 13,6 17,79
5,50 00:22:38 00:02:02 00:04:05 14,7 -3,31
6,00 00:26:23 00:03:44 00:07:29 8,0 41,08
6,50 00:28:50 00:02:27 00:04:55 12,2 -15,88
7,00 00:30:04 00:01:14 00:02:29 24,2 -38,50
7,50 00:31:08 00:01:03 00:02:06 28,5 -44,98
8,00 00:33:18 00:02:10 00:04:20 13,8 -7,91
8,50 00:35:50 00:02:32 00:05:05 11,8 -2,49
9,00 00:38:09 00:02:18 00:04:38 13,0 -8,29
9,50 00:39:59 00:01:49 00:03:40 16,4 -8,04
10,00 00:43:04 00:03:04 00:06:10 9,7 19,84
10,50 00:45:56 00:02:52 00:05:45 10,4 31,46
11,00 00:49:14 00:03:18 00:06:36 9,1 35,28
11,50 00:51:19 00:02:04 00:04:09 14,4 -41,38
12,00 00:52:48 00:01:29 00:02:58 20,2 -23,76
12,50 00:55:16 00:02:28 00:04:57 12,1 0,44
13,00 00:57:13 00:01:56 00:03:52 15,5 2,61
13,50 00:59:36 00:02:23 00:04:46 12,6 -1,94
14,00 01:01:53 00:02:17 00:04:35 13,1 32,68
14,50 01:04:40 00:02:46 00:05:34 10,8 31,86
15,00 01:07:58 00:03:18 00:06:36 9,1 38,61
15,50 01:10:05 00:02:07 00:04:14 14,2 0,46
16,00 01:12:04 00:01:59 00:03:58 15,1 -42,49
16,50 01:13:37 00:01:32 00:03:06 19,4 -27,06
17,00 01:16:18 00:02:40 00:05:21 11,2 26,28
17,50 01:19:07 00:02:48 00:05:38 10,7 25,37
18,00 01:21:24 00:02:16 00:04:34 13,2 0,53
18,50 01:25:15 00:03:51 00:07:42 7,8 33,17
19,00 01:29:20 00:04:04 00:08:10 7,4 48,16
19,50 01:31:49 00:02:29 00:04:58 12,1 13,41
20,00 01:35:19 00:03:30 00:07:02 8,5 17,83
20,50 01:38:37 00:03:17 00:06:35 9,1 26,65
21,00 01:40:41 00:02:04 00:04:09 14,5 -9,31
21,08 01:40:58 00:00:16 00:03:16 18,4 -2,50